| time (UTC) | temp F | wind direction | speed MPH | gust MPH | rain 1hr in | rain 24hr in | rain mn in | humidity % | barometer mb |
| 20260903075517 | 68 | 275 | 0.0 | 0.0 | 0.08 | 1.59 | 0.24 | 100 | 1014.3 |
| 20260903075015 | 68 | 275 | 0.0 | 0.0 | 0.08 | 1.59 | 0.24 | 100 | 1014.3 |
| 20260903074514 | 68 | 275 | 0.0 | 0.0 | 0.08 | 1.59 | 0.24 | 100 | 1014.3 |
| 20260903074034 | 68 | 275 | 0.0 | 0.0 | 0.08 | 1.59 | 0.24 | 100 | 1014.3 |
| 20260903073512 | 69 | 275 | 0.0 | 0.0 | 0.08 | 1.59 | 0.24 | 100 | 1014.4 |
| 20260903073012 | 69 | 264 | 0.0 | 4.0 | 0.08 | 1.59 | 0.24 | 100 | 1014.6 |
| 20260903072511 | 69 | 281 | 4.0 | 13.0 | 0.08 | 1.59 | 0.24 | 100 | 1014.7 |
| 20260903072009 | 70 | 257 | 8.0 | 26.0 | 0.08 | 1.59 | 0.24 | 100 | 1014.9 |
| 20260903071508 | 70 | 280 | 4.0 | 35.0 | 0.08 | 1.54 | 0.18 | 100 | 1015.4 |
| 20260903071007 | 70 | 349 | 1.0 | 5.0 | 0.10 | 1.51 | 0.16 | 100 | 1014.8 |
| 20260903070506 | 70 | 357 | 0.0 | 0.0 | 0.11 | 1.51 | 0.16 | 100 | 1014.5 |
| 20260903070037 | 70 | 357 | 0.0 | 0.0 | 0.11 | 1.51 | 0.16 | 100 | 1014.3 |
| 20260903070005 | 70 | 357 | 0.0 | 0.0 | 0.11 | 1.51 | 0.16 | 100 | 1014.3 |
| 20260903065525 | 69 | 357 | 0.0 | 0.0 | 0.11 | 1.51 | 0.16 | 100 | 1014.1 |
| 20260903065004 | 69 | 357 | 0.0 | 0.0 | 0.11 | 1.51 | 0.16 | 100 | 1014.3 |
| 20260903064524 | 69 | 357 | 0.0 | 0.0 | 0.11 | 1.51 | 0.16 | 100 | 1014.3 |
| 20260903064002 | 69 | 5 | 1.0 | 6.0 | 0.11 | 1.51 | 0.16 | 100 | 1014.3 |
| 20260903063500 | 69 | 357 | 2.0 | 8.0 | 0.11 | 1.51 | 0.16 | 99 | 1014.1 |
| 20260903062959 | 69 | 346 | 2.0 | 8.0 | 0.11 | 1.51 | 0.16 | 99 | 1014.1 |
| 20260903062519 | 69 | 354 | 6.0 | 13.0 | 0.11 | 1.51 | 0.16 | 99 | 1014.2 |
| 20260903062019 | 69 | 6 | 13.0 | 26.0 | 0.11 | 1.51 | 0.16 | 99 | 1013.9 |
| 20260903061517 | 69 | 5 | 11.0 | 18.0 | 0.06 | 1.45 | 0.09 | 99 | 1014.5 |
| 20260903061017 | 70 | 12 | 8.0 | 30.0 | 0.01 | 1.40 | 0.05 | 100 | 1014.7 |
| 20260903060454 | 70 | 2 | 5.0 | 12.0 | 0.00 | 1.39 | 0.04 | 100 | 1014.9 |
| 20260903055953 | 70 | 47 | 0.0 | 0.0 | 0.00 | 1.39 | 0.04 | 99 | 1014.6 |
| 20260903055452 | 70 | 9 | 1.0 | 4.0 | 0.00 | 1.39 | 0.04 | 99 | 1014.7 |
| 20260903054952 | 70 | 351 | 0.0 | 0.0 | 0.00 | 1.39 | 0.04 | 99 | 1014.5 |
| 20260903054450 | 70 | 240 | 0.0 | 0.0 | 0.00 | 1.39 | 0.04 | 99 | 1014.5 |
| 20260903053949 | 70 | 240 | 0.0 | 0.0 | 0.02 | 1.39 | 0.04 | 99 | 1014.4 |
| 20260903053449 | 70 | 240 | 0.0 | 0.0 | 0.02 | 1.39 | 0.04 | 99 | 1014.2 |
| 20260903052947 | 70 | 240 | 0.0 | 0.0 | 0.03 | 1.39 | 0.04 | 99 | 1014.3 |
| 20260903052446 | 70 | 240 | 0.0 | 0.0 | 0.04 | 1.39 | 0.04 | 99 | 1014.3 |
| 20260903051945 | 70 | 240 | 0.0 | 0.0 | 0.04 | 1.39 | 0.04 | 99 | 1014.3 |
| 20260903051444 | 70 | 240 | 0.0 | 0.0 | 0.04 | 1.39 | 0.04 | 99 | 1014.3 |
| 20260903050944 | 70 | 240 | 0.0 | 0.0 | 0.04 | 1.39 | 0.04 | 99 | 1014.2 |
| 20260903050442 | 70 | 240 | 0.0 | 0.0 | 0.04 | 1.39 | 0.04 | 99 | 1014.2 |
| 20260903045941 | 70 | 240 | 0.0 | 0.0 | 0.04 | 1.39 | 0.04 | 99 | 1014.3 |
| 20260903045440 | 70 | 240 | 0.0 | 0.0 | 0.04 | 1.39 | 0.04 | 99 | 1014.3 |
| 20260903044939 | 70 | 240 | 0.0 | 0.0 | 0.04 | 1.39 | 0.04 | 99 | 1014.3 |
| 20260903044438 | 70 | 262 | 0.0 | 0.0 | 0.05 | 1.39 | 0.03 | 99 | 1014.4 |
| 20260903043937 | 70 | 262 | 0.0 | 0.0 | 0.08 | 1.37 | 0.02 | 99 | 1014.4 |
| 20260903043436 | 69 | 262 | 0.0 | 0.0 | 0.09 | 1.37 | 0.02 | 99 | 1014.3 |
| 20260903042956 | 69 | 262 | 0.0 | 0.0 | 0.08 | 1.36 | 0.00 | 99 | 1014.3 |
| 20260903042435 | 69 | 262 | 0.0 | 0.0 | 0.07 | 1.35 | 0.00 | 99 | 1014.3 |
| 20260903041934 | 69 | 266 | 0.0 | 4.0 | 0.08 | 1.35 | 0.00 | 99 | 1014.3 |
| 20260903041432 | 69 | 337 | 0.0 | 0.0 | 0.12 | 1.35 | 0.00 | 99 | 1014.3 |
| 20260903040931 | 69 | 269 | 0.0 | 0.0 | 0.20 | 1.35 | 0.00 | 99 | 1014.2 |
| 20260903040451 | 69 | 270 | 0.0 | 0.0 | 0.30 | 1.35 | 0.00 | 98 | 1014.2 |
| 20260903035929 | 69 | 271 | 0.0 | 5.0 | 0.48 | 1.35 | 1.35 | 98 | 1014.3 |
| 20260903035428 | 69 | 335 | 1.0 | 5.0 | 0.71 | 1.35 | 1.35 | 98 | 1014.4 |
| 20260903034927 | 69 | 291 | 4.0 | 16.0 | 0.98 | 1.35 | 1.35 | 98 | 1014.4 |
| 20260903034426 | 68 | 277 | 6.0 | 22.0 | 1.32 | 1.34 | 1.34 | 98 | 1014.8 |
| 20260903033925 | 68 | 280 | 6.0 | 21.0 | 1.29 | 1.29 | 1.29 | 98 | 1015.2 |
| 20260903033424 | 68 | 278 | 2.0 | 11.0 | 1.28 | 1.28 | 1.28 | 97 | 1014.7 |
| 20260903032944 | 68 | 287 | 2.0 | 10.0 | 1.28 | 1.28 | 1.28 | 97 | 1014.5 |
| 20260903032422 | 68 | 240 | 3.0 | 13.0 | 1.28 | 1.28 | 1.28 | 97 | 1014.5 |
| 20260903031921 | 68 | 205 | 1.0 | 8.0 | 1.27 | 1.27 | 1.27 | 96 | 1014.6 |
| 20260903031420 | 68 | 238 | 3.0 | 11.0 | 1.22 | 1.22 | 1.22 | 96 | 1015.1 |
| 20260903030919 | 68 | 229 | 8.0 | 25.0 | 1.14 | 1.14 | 1.14 | 95 | 1015.4 |
| 20260903030418 | 69 | 253 | 16.0 | 43.0 | 1.05 | 1.05 | 1.03 | 94 | 1016.1 |
| 20260903025917 | 70 | 301 | 22.0 | 55.0 | 0.86 | 0.86 | 0.86 | 93 | 1015.4 |
| 20260903025416 | 49 | 358 | 24.0 | 51.0 | 0.63 | 0.63 | 0.62 | 41 | 1014.7 |
| 20260903024915 | 72 | 310 | 22.0 | 51.0 | 0.35 | 0.35 | 0.31 | 72 | 1014.7 |
| 20260903024415 | 79 | 319 | 11.0 | 47.0 | 0.01 | 0.01 | 0.01 | 78 | 1013.0 |
| 20260903023913 | 80 | 347 | 10.0 | 20.0 | 0.00 | 0.00 | 0.00 | 76 | 1012.4 |
| 20260903023412 | 82 | 4 | 11.0 | 29.0 | 0.00 | 0.00 | 0.00 | 74 | 1011.8 |
| 20260903022911 | 82 | 12 | 7.0 | 22.0 | 0.00 | 0.00 | 0.00 | 73 | 1012.0 |
| 20260903022410 | 82 | 3 | 7.0 | 19.0 | 0.00 | 0.00 | 0.00 | 73 | 1012.0 |
| 20260903021909 | 82 | 290 | 0.0 | 0.0 | 0.00 | 0.00 | 0.00 | 72 | 1012.0 |
| 20260903021408 | 83 | 290 | 0.0 | 0.0 | 0.00 | 0.00 | 0.00 | 72 | 1012.1 |
| 20260903020907 | 83 | 290 | 0.0 | 0.0 | 0.00 | 0.00 | 0.00 | 71 | 1012.5 |
| 20260903020407 | 83 | 290 | 0.0 | 0.0 | 0.00 | 0.00 | 0.00 | 71 | 1012.8 |
| 20260903015926 | 84 | 290 | 0.0 | 0.0 | 0.00 | 0.00 | 0.00 | 70 | 1012.8 |
| 20260903015404 | 84 | 290 | 0.0 | 0.0 | 0.00 | 0.00 | 0.00 | 69 | 1012.8 |
| 20260903014903 | 84 | 288 | 0.0 | 0.0 | 0.00 | 0.00 | 0.00 | 68 | 1012.8 |
| 20260903014401 | 84 | 282 | 0.0 | 2.0 | 0.00 | 0.00 | 0.00 | 67 | 1012.7 |
| 20260903013901 | 85 | 315 | 0.0 | 3.0 | 0.00 | 0.00 | 0.00 | 67 | 1012.7 |
| 20260903013400 | 85 | 300 | 0.0 | 3.0 | 0.00 | 0.00 | 0.00 | 66 | 1012.6 |
| 20260903012859 | 85 | 285 | 0.0 | 4.0 | 0.00 | 0.00 | 0.00 | 66 | 1012.6 |
| 20260903012419 | 85 | 276 | 0.0 | 0.0 | 0.00 | 0.00 | 0.00 | 65 | 1012.5 |
| 20260903011918 | 85 | 274 | 0.0 | 0.0 | 0.00 | 0.00 | 0.00 | 65 | 1012.5 |
| 20260903011416 | 85 | 272 | 0.0 | 2.0 | 0.00 | 0.00 | 0.00 | 65 | 1012.4 |
| 20260903010916 | 85 | 276 | 0.0 | 2.0 | 0.00 | 0.00 | 0.00 | 64 | 1012.3 |
| 20260903010354 | 86 | 283 | 0.0 | 4.0 | 0.00 | 0.00 | 0.00 | 64 | 1012.2 |
| 20260903005853 | 86 | 266 | 0.0 | 3.0 | 0.00 | 0.00 | 0.00 | 64 | 1012.2 |
| 20260903005352 | 86 | 270 | 0.0 | 0.0 | 0.00 | 0.00 | 0.00 | 63 | 1012.2 |
| 20260903004850 | 86 | 267 | 0.0 | 1.0 | 0.00 | 0.00 | 0.00 | 63 | 1012.1 |
| 20260903004350 | 86 | 273 | 0.0 | 3.0 | 0.00 | 0.00 | 0.00 | 62 | 1012.1 |
| 20260903003910 | 87 | 301 | 0.0 | 4.0 | 0.00 | 0.00 | 0.00 | 62 | 1012.0 |
| 20260903003347 | 87 | 275 | 1.0 | 5.0 | 0.00 | 0.00 | 0.00 | 62 | 1012.0 |
| 20260903002847 | 87 | 284 | 2.0 | 7.0 | 0.00 | 0.00 | 0.00 | 61 | 1012.0 |
| 20260903002345 | 87 | 329 | 1.0 | 8.0 | 0.00 | 0.00 | 0.00 | 61 | 1012.0 |
| 20260903001906 | 87 | 296 | 0.0 | 0.0 | 0.00 | 0.00 | 0.00 | 61 | 1011.9 |
| 20260903001343 | 87 | 288 | 0.0 | 4.0 | 0.00 | 0.00 | 0.00 | 60 | 1011.9 |
| 20260903000843 | 88 | 310 | 1.0 | 10.0 | 0.00 | 0.00 | 0.00 | 60 | 1011.9 |
| 20260903000342 | 88 | 283 | 1.0 | 8.0 | 0.00 | 0.00 | 0.00 | 59 | 1011.9 |
| 20260902235901 | 88 | 289 | 3.0 | 13.0 | 0.00 | 0.00 | 0.00 | 58 | 1011.8 |
| 20260902235340 | 88 | 290 | 3.0 | 10.0 | 0.00 | 0.00 | 0.00 | 58 | 1011.8 |
| 20260902234839 | 88 | 293 | 4.0 | 12.0 | 0.00 | 0.00 | 0.00 | 58 | 1011.9 |
| 20260902234337 | 89 | 269 | 1.0 | 11.0 | 0.00 | 0.00 | 0.00 | 57 | 1011.9 |
| 20260902233836 | 89 | 287 | 5.0 | 14.0 | 0.00 | 0.00 | 0.00 | 57 | 1011.9 |
| 20260902233335 | 89 | 270 | 1.0 | 12.0 | 0.00 | 0.00 | 0.00 | 57 | 1011.9 |
| 20260902232835 | 89 | 286 | 4.0 | 17.0 | 0.00 | 0.00 | 0.00 | 56 | 1011.9 |
| 20260902232334 | 89 | 270 | 2.0 | 12.0 | 0.00 | 0.00 | 0.00 | 55 | 1011.9 |
| 20260902231853 | 90 | 278 | 8.0 | 21.0 | 0.00 | 0.00 | 0.00 | 54 | 1011.9 |
| 20260902231332 | 90 | 289 | 10.0 | 28.0 | 0.00 | 0.00 | 0.00 | 54 | 1011.9 |
| 20260902230830 | 90 | 291 | 11.0 | 25.0 | 0.00 | 0.00 | 0.00 | 54 | 1011.8 |
| 20260902230350 | 91 | 275 | 4.0 | 14.0 | 0.00 | 0.00 | 0.00 | 55 | 1011.7 |
| 20260902225829 | 91 | 278 | 3.0 | 12.0 | 0.00 | 0.00 | 0.00 | 54 | 1011.7 |
| 20260902225349 | 91 | 293 | 5.0 | 24.0 | 0.00 | 0.00 | 0.00 | 54 | 1011.7 |
| 20260902224826 | 91 | 283 | 4.0 | 13.0 | 0.00 | 0.00 | 0.00 | 54 | 1011.6 |
| 20260902224325 | 92 | 297 | 6.0 | 19.0 | 0.00 | 0.00 | 0.00 | 53 | 1011.6 |
| 20260902223825 | 92 | 276 | 5.0 | 16.0 | 0.00 | 0.00 | 0.00 | 52 | 1011.5 |
| 20260902223323 | 92 | 275 | 6.0 | 16.0 | 0.00 | 0.00 | 0.00 | 51 | 1011.4 |
| 20260902222822 | 93 | 300 | 6.0 | 17.0 | 0.00 | 0.00 | 0.00 | 51 | 1011.5 |
| 20260902222321 | 93 | 294 | 9.0 | 33.0 | 0.00 | 0.00 | 0.00 | 50 | 1011.5 |
| 20260902221820 | 92 | 289 | 7.0 | 28.0 | 0.00 | 0.00 | 0.00 | 51 | 1011.6 |
| 20260902221319 | 92 | 295 | 13.0 | 29.0 | 0.00 | 0.00 | 0.00 | 51 | 1011.5 |
| 20260902220840 | 92 | 280 | 12.0 | 25.0 | 0.00 | 0.00 | 0.00 | 51 | 1011.4 |
| 20260902220317 | 92 | 290 | 9.0 | 23.0 | 0.00 | 0.00 | 0.00 | 50 | 1011.2 |
| 20260902215817 | 92 | 266 | 6.0 | 17.0 | 0.00 | 0.00 | 0.00 | 50 | 1011.1 |
| 20260902215336 | 92 | 273 | 11.0 | 28.0 | 0.00 | 0.00 | 0.00 | 50 | 1011.1 |
| 20260902214835 | 92 | 260 | 9.0 | 23.0 | 0.00 | 0.00 | 0.00 | 50 | 1011.2 |
| 20260902214314 | 93 | 273 | 13.0 | 37.0 | 0.00 | 0.00 | 0.00 | 50 | 1011.3 |
| 20260902213812 | 93 | 291 | 9.0 | 22.0 | 0.00 | 0.00 | 0.00 | 51 | 1011.4 |
| 20260902213311 | 93 | 300 | 10.0 | 23.0 | 0.00 | 0.00 | 0.00 | 50 | 1011.5 |
| 20260902212811 | 93 | 282 | 7.0 | 26.0 | 0.00 | 0.00 | 0.00 | 51 | 1011.5 |
| 20260902212309 | 93 | 273 | 5.0 | 27.0 | 0.00 | 0.00 | 0.00 | 51 | 1011.5 |
| 20260902211808 | 93 | 300 | 11.0 | 34.0 | 0.00 | 0.00 | 0.00 | 50 | 1011.6 |
| 20260902211329 | 93 | 314 | 11.0 | 26.0 | 0.00 | 0.00 | 0.00 | 50 | 1011.6 |
| 20260902210807 | 93 | 289 | 10.0 | 21.0 | 0.00 | 0.00 | 0.00 | 50 | 1011.6 |
| 20260902210305 | 92 | 280 | 8.0 | 31.0 | 0.00 | 0.00 | 0.00 | 50 | 1011.6 |
| 20260902205805 | 92 | 288 | 8.0 | 19.0 | 0.00 | 0.00 | 0.00 | 50 | 1011.6 |
| 20260902205324 | 93 | 276 | 7.0 | 19.0 | 0.00 | 0.00 | 0.00 | 50 | 1011.7 |
| 20260902204802 | 93 | 290 | 10.0 | 25.0 | 0.00 | 0.00 | 0.00 | 49 | 1011.6 |
| 20260902204301 | 94 | 274 | 6.0 | 16.0 | 0.00 | 0.00 | 0.00 | 49 | 1011.6 |
| 20260902203800 | 94 | 300 | 9.0 | 26.0 | 0.00 | 0.00 | 0.00 | 50 | 1011.7 |
| 20260902203300 | 93 | 285 | 5.0 | 17.0 | 0.00 | 0.00 | 0.00 | 50 | 1011.8 |
| 20260902202758 | 93 | 318 | 10.0 | 21.0 | 0.00 | 0.00 | 0.00 | 49 | 1011.9 |
| 20260902202257 | 93 | 297 | 8.0 | 22.0 | 0.00 | 0.00 | 0.00 | 49 | 1011.9 |
| 20260902201757 | 94 | 283 | 6.0 | 18.0 | 0.00 | 0.00 | 0.00 | 48 | 1012.0 |
| 20260902201255 | 94 | 273 | 10.0 | 31.0 | 0.00 | 0.00 | 0.00 | 47 | 1012.0 |
| 20260902200754 | 94 | 312 | 15.0 | 31.0 | 0.00 | 0.00 | 0.00 | 47 | 1012.1 |
| 20260902200253 | 94 | 297 | 8.0 | 31.0 | 0.00 | 0.00 | 0.00 | 47 | 1012.1 |
| 20260902195752 | 94 | 290 | 11.0 | 28.0 | 0.00 | 0.00 | 0.00 | 47 | 1012.1 |
| 20260902195251 | 94 | 300 | 8.0 | 22.0 | 0.00 | 0.00 | 0.00 | 47 | 1012.1 |
| 20260902194811 | 95 | 325 | 11.0 | 29.0 | 0.00 | 0.00 | 0.00 | 46 | 1012.2 |
| 20260902194249 | 94 | 299 | 13.0 | 32.0 | 0.00 | 0.00 | 0.00 | 46 | 1012.4 |
| 20260902193748 | 95 | 294 | 9.0 | 24.0 | 0.00 | 0.00 | 0.00 | 46 | 1012.4 |
| 20260902193308 | 95 | 295 | 14.0 | 29.0 | 0.00 | 0.00 | 0.00 | 45 | 1012.5 |
| 20260902192746 | 95 | 308 | 8.0 | 27.0 | 0.00 | 0.00 | 0.00 | 46 | 1012.5 |
| 20260902192245 | 95 | 287 | 7.0 | 19.0 | 0.00 | 0.00 | 0.00 | 46 | 1012.5 |
| 20260902191744 | 95 | 285 | 8.0 | 29.0 | 0.00 | 0.00 | 0.00 | 46 | 1012.6 |
| 20260902191244 | 96 | 310 | 11.0 | 26.0 | 0.00 | 0.00 | 0.00 | 45 | 1012.6 |
| 20260902190802 | 96 | 260 | 6.0 | 22.0 | 0.00 | 0.00 | 0.00 | 45 | 1012.6 |
| 20260902190302 | 96 | 272 | 6.0 | 24.0 | 0.00 | 0.00 | 0.00 | 46 | 1012.6 |
| 20260902185801 | 96 | 310 | 7.0 | 21.0 | 0.00 | 0.00 | 0.00 | 46 | 1012.5 |
| 20260902185239 | 97 | 298 | 6.0 | 22.0 | 0.00 | 0.00 | 0.00 | 44 | 1012.5 |
| 20260902184738 | 98 | 297 | 8.0 | 26.0 | 0.00 | 0.00 | 0.00 | 44 | 1012.4 |
| 20260902184237 | 98 | 257 | 8.0 | 20.0 | 0.00 | 0.00 | 0.00 | 44 | 1012.5 |
| 20260902183736 | 97 | 284 | 5.0 | 16.0 | 0.00 | 0.00 | 0.00 | 46 | 1012.5 |
| 20260902183234 | 97 | 279 | 7.0 | 30.0 | 0.00 | 0.00 | 0.00 | 47 | 1012.6 |
| 20260902182734 | 97 | 310 | 7.0 | 16.0 | 0.00 | 0.00 | 0.00 | 46 | 1012.6 |
| 20260902182233 | 97 | 279 | 4.0 | 14.0 | 0.00 | 0.00 | 0.00 | 47 | 1012.6 |
| 20260902181732 | 98 | 277 | 4.0 | 19.0 | 0.00 | 0.00 | 0.00 | 46 | 1012.6 |
| 20260902181230 | 98 | 307 | 8.0 | 26.0 | 0.00 | 0.00 | 0.00 | 46 | 1012.7 |
| 20260902180730 | 97 | 299 | 6.0 | 15.0 | 0.00 | 0.00 | 0.00 | 47 | 1012.8 |
| 20260902180250 | 98 | 261 | 5.0 | 22.0 | 0.00 | 0.00 | 0.00 | 47 | 1012.9 |
| 20260902175728 | 97 | 270 | 6.0 | 26.0 | 0.00 | 0.00 | 0.00 | 48 | 1013.0 |
| 20260902175226 | 96 | 314 | 7.0 | 19.0 | 0.00 | 0.00 | 0.00 | 49 | 1013.1 |
| 20260902174725 | 96 | 303 | 4.0 | 18.0 | 0.00 | 0.00 | 0.00 | 51 | 1013.3 |
| 20260902174224 | 95 | 335 | 7.0 | 21.0 | 0.00 | 0.00 | 0.00 | 50 | 1013.3 |
| 20260902173724 | 96 | 334 | 8.0 | 19.0 | 0.00 | 0.00 | 0.00 | 50 | 1013.4 |
| 20260902173223 | 95 | 304 | 7.0 | 17.0 | 0.00 | 0.00 | 0.00 | 50 | 1013.5 |
| 20260902172722 | 95 | 343 | 5.0 | 16.0 | 0.00 | 0.00 | 0.00 | 53 | 1013.6 |
| 20260902172242 | 94 | 331 | 9.0 | 20.0 | 0.00 | 0.00 | 0.00 | 51 | 1013.7 |
| 20260902171741 | 94 | 332 | 9.0 | 20.0 | 0.00 | 0.00 | 0.00 | 52 | 1013.8 |
| 20260902171218 | 94 | 308 | 8.0 | 17.0 | 0.00 | 0.00 | 0.00 | 52 | 1013.9 |
| 20260902170718 | 94 | 311 | 8.0 | 19.0 | 0.00 | 0.00 | 0.00 | 53 | 1014.0 |
| 20260902170217 | 93 | 322 | 8.0 | 16.0 | 0.00 | 0.00 | 0.00 | 54 | 1014.0 |
| 20260902165736 | 93 | 310 | 12.0 | 24.0 | 0.00 | 0.00 | 0.00 | 54 | 1014.1 |
| 20260902165215 | 93 | 285 | 4.0 | 17.0 | 0.00 | 0.00 | 0.00 | 56 | 1014.2 |
| 20260902164713 | 92 | 312 | 6.0 | 23.0 | 0.00 | 0.00 | 0.00 | 57 | 1014.3 |
| 20260902164212 | 92 | 291 | 7.0 | 17.0 | 0.00 | 0.00 | 0.00 | 56 | 1014.3 |
| 20260902163711 | 93 | 318 | 11.0 | 24.0 | 0.00 | 0.00 | 0.00 | 55 | 1014.3 |
| 20260902163210 | 94 | 302 | 7.0 | 17.0 | 0.00 | 0.00 | 0.00 | 55 | 1014.2 |
| 20260902162730 | 93 | 292 | 8.0 | 24.0 | 0.00 | 0.00 | 0.00 | 56 | 1014.1 |
| 20260902162209 | 93 | 304 | 5.0 | 13.0 | 0.00 | 0.00 | 0.00 | 56 | 1014.1 |
| 20260902161707 | 93 | 288 | 3.0 | 15.0 | 0.00 | 0.00 | 0.00 | 57 | 1014.1 |
| 20260902161228 | 93 | 281 | 7.0 | 19.0 | 0.00 | 0.00 | 0.00 | 56 | 1014.1 |
| 20260902160705 | 93 | 267 | 6.0 | 28.0 | 0.00 | 0.00 | 0.00 | 57 | 1014.2 |
| 20260902160205 | 93 | 285 | 5.0 | 12.0 | 0.00 | 0.00 | 0.00 | 58 | 1014.2 |
| 20260902155704 | 93 | 287 | 6.0 | 24.0 | 0.00 | 0.00 | 0.00 | 57 | 1014.2 |
| 20260902155202 | 93 | 271 | 4.0 | 16.0 | 0.00 | 0.00 | 0.00 | 57 | 1014.2 |
| 20260902154701 | 93 | 282 | 6.0 | 15.0 | 0.00 | 0.00 | 0.00 | 57 | 1014.2 |
| 20260902154201 | 92 | 292 | 3.0 | 12.0 | 0.00 | 0.00 | 0.00 | 60 | 1014.2 |
| 20260902153720 | 92 | 305 | 2.0 | 13.0 | 0.00 | 0.00 | 0.00 | 59 | 1014.2 |
| 20260902153158 | 92 | 309 | 8.0 | 19.0 | 0.00 | 0.00 | 0.00 | 58 | 1014.1 |
| 20260902152658 | 92 | 296 | 6.0 | 19.0 | 0.00 | 0.00 | 0.00 | 59 | 1014.2 |
| 20260902152156 | 91 | 312 | 7.0 | 18.0 | 0.00 | 0.00 | 0.00 | 60 | 1014.3 |
| 20260902151655 | 91 | 302 | 2.0 | 11.0 | 0.00 | 0.00 | 0.00 | 61 | 1014.3 |
| 20260902151155 | 91 | 265 | 2.0 | 11.0 | 0.00 | 0.00 | 0.00 | 62 | 1014.2 |
| 20260902150653 | 90 | 326 | 4.0 | 21.0 | 0.00 | 0.00 | 0.00 | 61 | 1014.2 |
| 20260902150152 | 90 | 331 | 7.0 | 20.0 | 0.00 | 0.00 | 0.00 | 62 | 1014.2 |
| 20260902145651 | 90 | 324 | 4.0 | 11.0 | 0.00 | 0.00 | 0.00 | 65 | 1014.3 |
| 20260902145151 | 89 | 317 | 7.0 | 13.0 | 0.00 | 0.00 | 0.00 | 65 | 1014.3 |
| 20260902144649 | 89 | 309 | 2.0 | 10.0 | 0.00 | 0.00 | 0.00 | 66 | 1014.3 |
| 20260902144148 | 88 | 298 | 4.0 | 11.0 | 0.00 | 0.00 | 0.00 | 68 | 1014.3 |
| 20260902143708 | 87 | 311 | 5.0 | 15.0 | 0.00 | 0.00 | 0.00 | 68 | 1014.4 |
| 20260902143147 | 87 | 312 | 6.0 | 15.0 | 0.00 | 0.00 | 0.00 | 69 | 1014.4 |
| 20260902142646 | 86 | 309 | 6.0 | 18.0 | 0.00 | 0.00 | 0.00 | 71 | 1014.4 |
| 20260902142144 | 86 | 310 | 4.0 | 10.0 | 0.00 | 0.00 | 0.00 | 71 | 1014.3 |
| 20260902141704 | 86 | 338 | 4.0 | 13.0 | 0.00 | 0.00 | 0.00 | 72 | 1014.3 |
| 20260902141142 | 86 | 315 | 7.0 | 18.0 | 0.00 | 0.00 | 0.00 | 72 | 1014.4 |
| 20260902140641 | 86 | 321 | 4.0 | 19.0 | 0.00 | 0.00 | 0.00 | 72 | 1014.4 |
| 20260902140140 | 86 | 323 | 4.0 | 19.0 | 0.00 | 0.00 | 0.00 | 74 | 1014.3 |
| 20260902135639 | 86 | 286 | 4.0 | 13.0 | 0.00 | 0.00 | 0.00 | 75 | 1014.4 |
| 20260902135138 | 85 | 308 | 1.0 | 8.0 | 0.00 | 0.00 | 0.00 | 76 | 1014.4 |
| 20260902134637 | 84 | 322 | 6.0 | 16.0 | 0.00 | 0.00 | 0.00 | 77 | 1014.5 |
| 20260902134158 | 84 | 323 | 3.0 | 10.0 | 0.00 | 0.00 | 0.00 | 78 | 1014.5 |
| 20260902133635 | 83 | 317 | 3.0 | 14.0 | 0.00 | 0.00 | 0.00 | 80 | 1014.6 |
| 20260902133134 | 83 | 312 | 4.0 | 14.0 | 0.00 | 0.00 | 0.00 | 81 | 1014.7 |
| 20260902132655 | 82 | 299 | 5.0 | 16.0 | 0.00 | 0.00 | 0.00 | 81 | 1014.8 |
| 20260902132132 | 82 | 307 | 5.0 | 15.0 | 0.00 | 0.00 | 0.00 | 82 | 1014.8 |
| 20260902131632 | 82 | 319 | 7.0 | 14.0 | 0.00 | 0.00 | 0.00 | 82 | 1014.9 |
| 20260902131130 | 81 | 308 | 6.0 | 16.0 | 0.00 | 0.00 | 0.00 | 84 | 1014.9 |
| 20260902130650 | 81 | 314 | 3.0 | 15.0 | 0.00 | 0.00 | 0.00 | 84 | 1014.9 |
| 20260902130128 | 80 | 308 | 5.0 | 15.0 | 0.00 | 0.00 | 0.00 | 85 | 1014.9 |
| 20260902125627 | 80 | 302 | 6.0 | 19.0 | 0.00 | 0.00 | 0.00 | 86 | 1014.8 |
| 20260902125126 | 79 | 307 | 7.0 | 18.0 | 0.00 | 0.00 | 0.00 | 86 | 1014.8 |
| 20260902124625 | 79 | 312 | 6.0 | 15.0 | 0.00 | 0.00 | 0.00 | 87 | 1014.8 |
| 20260902124145 | 79 | 317 | 4.0 | 17.0 | 0.00 | 0.00 | 0.00 | 88 | 1014.8 |
| 20260902123623 | 78 | 306 | 5.0 | 19.0 | 0.00 | 0.00 | 0.00 | 88 | 1014.8 |
| 20260902123122 | 78 | 299 | 6.0 | 18.0 | 0.00 | 0.00 | 0.00 | 89 | 1014.8 |
| 20260902122621 | 78 | 306 | 5.0 | 16.0 | 0.00 | 0.00 | 0.00 | 89 | 1014.8 |
| 20260902122120 | 78 | 315 | 4.0 | 14.0 | 0.00 | 0.00 | 0.00 | 89 | 1014.8 |
| 20260902121619 | 78 | 320 | 4.0 | 13.0 | 0.00 | 0.00 | 0.00 | 90 | 1014.8 |
| 20260902121118 | 77 | 301 | 7.0 | 16.0 | 0.00 | 0.00 | 0.00 | 90 | 1014.8 |
| 20260902120616 | 77 | 312 | 4.0 | 15.0 | 0.00 | 0.00 | 0.00 | 91 | 1014.9 |
| 20260902120116 | 77 | 308 | 4.0 | 16.0 | 0.00 | 0.00 | 0.00 | 91 | 1014.9 |
| 20260902115616 | 76 | 306 | 2.0 | 10.0 | 0.00 | 0.00 | 0.00 | 92 | 1015.1 |
| 20260902115114 | 76 | 299 | 5.0 | 15.0 | 0.00 | 0.00 | 0.00 | 92 | 1015.2 |
| 20260902114634 | 76 | 302 | 5.0 | 15.0 | 0.00 | 0.00 | 0.00 | 93 | 1015.1 |
| 20260902114112 | 76 | 301 | 4.0 | 11.0 | 0.00 | 0.00 | 0.00 | 93 | 1015.1 |
| 20260902113611 | 76 | 292 | 1.0 | 7.0 | 0.00 | 0.00 | 0.00 | 93 | 1015.0 |
| 20260902113110 | 75 | 322 | 1.0 | 7.0 | 0.00 | 0.00 | 0.00 | 94 | 1015.0 |
| 20260902112609 | 75 | 288 | 1.0 | 9.0 | 0.00 | 0.00 | 0.00 | 94 | 1015.0 |
| 20260902112108 | 75 | 268 | 1.0 | 9.0 | 0.00 | 0.00 | 0.00 | 94 | 1015.1 |
| 20260902111629 | 75 | 327 | 1.0 | 9.0 | 0.00 | 0.00 | 0.00 | 94 | 1015.0 |
| 20260902111106 | 75 | 299 | 1.0 | 9.0 | 0.00 | 0.00 | 0.00 | 94 | 1015.0 |
| 20260902110605 | 75 | 293 | 2.0 | 10.0 | 0.00 | 0.00 | 0.00 | 94 | 1015.2 |
| 20260902110103 | 75 | 350 | 0.0 | 0.0 | 0.00 | 0.00 | 0.00 | 94 | 1015.3 |
| 20260902105602 | 75 | 318 | 0.0 | 5.0 | 0.00 | 0.00 | 0.00 | 94 | 1015.3 |
| 20260902105102 | 75 | 303 | 2.0 | 9.0 | 0.00 | 0.00 | 0.00 | 94 | 1015.2 |
| 20260902104622 | 75 | 296 | 1.0 | 9.0 | 0.00 | 0.00 | 0.00 | 94 | 1015.2 |
| 20260902104059 | 75 | 304 | 1.0 | 6.0 | 0.00 | 0.00 | 0.00 | 94 | 1015.2 |
| 20260902103559 | 75 | 306 | 1.0 | 6.0 | 0.00 | 0.00 | 0.00 | 94 | 1015.2 |
| 20260902103058 | 75 | 300 | 3.0 | 9.0 | 0.00 | 0.00 | 0.00 | 94 | 1015.1 |
| 20260902102556 | 75 | 315 | 1.0 | 9.0 | 0.00 | 0.00 | 0.00 | 95 | 1015.1 |
| 20260902102056 | 75 | 283 | 2.0 | 11.0 | 0.00 | 0.00 | 0.00 | 95 | 1015.1 |
| 20260902101555 | 75 | 292 | 1.0 | 9.0 | 0.00 | 0.00 | 0.00 | 95 | 1015.1 |
| 20260902101115 | 75 | 267 | 2.0 | 10.0 | 0.00 | 0.00 | 0.00 | 95 | 1014.9 |
| 20260902100613 | 75 | 262 | 1.0 | 7.0 | 0.00 | 0.00 | 0.00 | 95 | 1014.9 |
| 20260902100052 | 75 | 273 | 1.0 | 7.0 | 0.00 | 0.00 | 0.00 | 95 | 1014.8 |
| 20260902095611 | 75 | 266 | 1.0 | 8.0 | 0.00 | 0.00 | 0.00 | 95 | 1014.7 |
| 20260902095050 | 75 | 257 | 0.0 | 2.0 | 0.00 | 0.00 | 0.00 | 95 | 1014.7 |
| 20260902094549 | 75 | 260 | 0.0 | 3.0 | 0.00 | 0.00 | 0.00 | 95 | 1014.7 |
| 20260902094108 | 75 | 269 | 0.0 | 3.0 | 0.00 | 0.00 | 0.00 | 95 | 1014.8 |
| 20260902093547 | 75 | 276 | 0.0 | 0.0 | 0.00 | 0.00 | 0.00 | 94 | 1014.8 |
| 20260902093046 | 75 | 279 | 0.0 | 3.0 | 0.00 | 0.00 | 0.00 | 94 | 1014.8 |
| 20260902092544 | 75 | 280 | 0.0 | 1.0 | 0.00 | 0.00 | 0.00 | 94 | 1014.8 |
| 20260902092044 | 75 | 280 | 0.0 | 2.0 | 0.00 | 0.00 | 0.00 | 94 | 1014.8 |
| 20260902091542 | 75 | 274 | 0.0 | 3.0 | 0.00 | 0.00 | 0.00 | 94 | 1014.8 |
| 20260902091042 | 75 | 281 | 0.0 | 4.0 | 0.00 | 0.00 | 0.00 | 94 | 1014.8 |
| 20260902090540 | 75 | 303 | 1.0 | 5.0 | 0.00 | 0.00 | 0.00 | 94 | 1014.6 |
| 20260902090100 | 75 | 302 | 1.0 | 4.0 | 0.00 | 0.00 | 0.00 | 94 | 1014.6 |
| 20260902085538 | 75 | 264 | 1.0 | 7.0 | 0.00 | 0.00 | 0.00 | 94 | 1014.5 |
| 20260902085038 | 75 | 276 | 1.0 | 6.0 | 0.00 | 0.00 | 0.00 | 94 | 1014.6 |
| 20260902084537 | 75 | 308 | 1.0 | 5.0 | 0.00 | 0.00 | 0.00 | 94 | 1014.7 |
| 20260902084036 | 75 | 278 | 1.0 | 6.0 | 0.00 | 0.00 | 0.00 | 94 | 1014.7 |
| 20260902083534 | 75 | 292 | 0.0 | 4.0 | 0.00 | 0.00 | 0.00 | 94 | 1014.6 |
| 20260902083033 | 75 | 281 | 1.0 | 4.0 | 0.00 | 0.00 | 0.00 | 94 | 1014.6 |
| 20260902082532 | 75 | 281 | 1.0 | 6.0 | 0.00 | 0.00 | 0.00 | 94 | 1014.6 |
| 20260902082031 | 75 | 278 | 0.0 | 3.0 | 0.00 | 0.00 | 0.00 | 94 | 1014.7 |
| 20260902081530 | 75 | 314 | 2.0 | 6.0 | 0.00 | 0.00 | 0.00 | 94 | 1014.7 |
| 20260902081030 | 75 | 305 | 0.0 | 5.0 | 0.00 | 0.00 | 0.00 | 94 | 1014.7 |
| 20260902080550 | 75 | 301 | 1.0 | 9.0 | 0.00 | 0.00 | 0.00 | 94 | 1014.7 |
| 20260902080048 | 75 | 273 | 0.0 | 1.0 | 0.00 | 0.00 | 0.00 | 94 | 1014.8 |